Time;durP1;ratioP1;P1;durP2;ratioP2;P2;SDS_P1;SDS_P2;PMS_P1;PMS_P2;Temp;Humidity;BMP_temperature;BMP_pressure;BME280_temperature;BME280_humidity;BME280_pressure;Samples;Min_cycle;Max_cycle;Signal;HPM_P1;HPM_P2
2022/12/10 00:01:22;;;;;;;9.05;4.78;;;;;;;22.00;43.67;94270.06;5044681;28;20044;-62
2022/12/10 00:03:47;;;;;;;7.28;4.70;;;;;;;21.99;43.80;94263.16;5026205;28;20057;-61
2022/12/10 00:06:14;;;;;;;8.18;5.28;;;;;;;22.00;43.67;94264.63;5044516;28;20571;-63
2022/12/10 00:08:40;;;;;;;7.95;5.05;;;;;;;20.77;43.69;94081.28;5044137;28;20554;-61
2022/12/10 00:11:09;;;;;;;7.80;5.05;;;;;;;21.99;43.89;94267.88;5043760;28;20036;-62
2022/12/10 00:13:35;;;;;;;8.48;5.05;;;;;;;21.98;43.75;94269.09;5044268;28;20071;-63
2022/12/10 00:16:01;;;;;;;6.45;4.75;;;;;;;21.90;43.82;94256.63;5043851;28;20056;-62
2022/12/10 00:18:26;;;;;;;7.68;4.57;;;;;;;21.83;43.68;94246.38;5043353;28;20093;-62
2022/12/10 00:20:52;;;;;;;6.80;5.15;;;;;;;21.96;43.94;94268.91;5043737;28;20374;-61
2022/12/10 00:23:18;;;;;;;7.65;4.97;;;;;;;21.92;43.94;94263.75;5025920;28;20758;-61
2022/12/10 00:25:43;;;;;;;7.43;5.00;;;;;;;21.92;43.84;94252.88;5044002;28;20033;-62
2022/12/10 00:28:09;;;;;;;7.35;4.40;;;;;;;21.86;43.74;94221.59;5026581;28;20492;-61
2022/12/10 00:30:34;;;;;;;7.82;4.75;;;;;;;21.71;43.63;94215.19;5043680;28;20056;-62
2022/12/10 00:32:59;;;;;;;5.80;4.53;;;;;;;21.10;43.65;94147.38;5044226;28;20060;-62
2022/12/10 00:35:25;;;;;;;7.53;4.75;;;;;;;21.78;43.61;94226.19;5005943;28;20092;-62
2022/12/10 00:37:50;;;;;;;7.78;5.30;;;;;;;21.92;43.76;94252.16;5041050;28;20078;-61
2022/12/10 00:40:16;;;;;;;8.07;4.50;;;;;;;21.91;44.01;94266.97;5026477;28;20041;-62
2022/12/10 00:42:41;;;;;;;6.95;4.90;;;;;;;21.91;43.96;94255.38;5026226;28;20033;-61
2022/12/10 00:45:07;;;;;;;6.90;4.75;;;;;;;20.45;43.58;94047.16;5009525;28;20041;-63
2022/12/10 00:47:33;;;;;;;7.45;4.70;;;;;;;21.66;44.00;94213.28;5043667;28;20045;-62
2022/12/10 00:49:58;;;;;;;7.10;4.65;;;;;;;21.07;43.86;94143.00;5043339;28;20393;-61
2022/12/10 00:52:24;;;;;;;7.07;4.80;;;;;;;21.25;43.88;94163.97;5031339;28;20025;-62
2022/12/10 00:54:49;;;;;;;8.15;4.95;;;;;;;21.09;43.75;94135.09;5043725;28;20107;-63
2022/12/10 00:57:15;;;;;;;7.30;4.68;;;;;;;21.90;43.94;94281.09;5025542;28;20087;-62
2022/12/10 00:59:41;;;;;;;7.43;4.43;;;;;;;21.89;43.93;94274.19;5043174;28;20048;-62
2022/12/10 01:02:06;;;;;;;7.60;4.50;;;;;;;21.88;43.75;94283.59;5030047;28;20041;-64
2022/12/10 01:04:31;;;;;;;8.70;4.68;;;;;;;21.84;43.91;94266.84;5010147;28;20071;-63
2022/12/10 01:06:59;;;;;;;6.97;4.38;;;;;;;20.57;43.85;94079.06;5029411;28;20063;-62
2022/12/10 01:09:28;;;;;;;6.05;4.50;;;;;;;21.82;44.06;94253.03;5046555;28;20033;-62
2022/12/10 01:11:55;;;;;;;9.35;4.53;;;;;;;21.86;44.04;94258.94;5046821;28;20687;-62
2022/12/10 01:14:25;;;;;;;6.72;4.75;;;;;;;21.77;43.94;94243.00;5047826;28;20045;-62
2022/12/10 01:16:53;;;;;;;7.20;4.57;;;;;;;21.36;43.97;94185.53;5030823;28;20560;-62
2022/12/10 01:19:20;;;;;;;6.45;4.03;;;;;;;21.83;44.35;94265.41;5031163;28;20090;-62
2022/12/10 01:21:45;;;;;;;7.75;4.85;;;;;;;21.60;43.90;94231.66;5048239;28;20173;-62
2022/12/10 01:24:11;;;;;;;7.88;4.90;;;;;;;20.95;44.01;94107.66;5012655;28;20056;-61
2022/12/10 01:26:36;;;;;;;5.88;4.35;;;;;;;21.81;44.09;94235.25;5046519;28;20868;-59
2022/12/10 01:29:02;;;;;;;7.10;4.35;;;;;;;21.78;44.00;94247.16;5046341;28;20056;-62
2022/12/10 01:31:33;;;;;;;6.22;4.40;;;;;;;21.78;44.14;94230.88;5048063;28;20493;-61
2022/12/10 01:33:59;;;;;;;5.72;4.25;;;;;;;21.65;44.04;94223.41;5029751;28;20047;-63
2022/12/10 01:36:29;;;;;;;6.40;4.72;;;;;;;21.16;44.02;94134.47;5009564;28;20101;-62
2022/12/10 01:38:54;;;;;;;6.57;4.32;;;;;;;21.71;43.99;94217.91;5006794;28;20120;-61
2022/12/10 01:41:28;;;;;;;8.30;4.60;;;;;;;21.78;43.99;94247.16;5046683;28;20049;-62
2022/12/10 01:43:59;;;;;;;5.85;4.07;;;;;;;21.82;44.20;94253.03;5028871;28;20061;-62
2022/12/10 01:46:26;;;;;;;6.75;4.68;;;;;;;21.76;44.54;94244.25;5046877;28;20025;-61
2022/12/10 01:48:52;;;;;;;6.43;4.20;;;;;;;21.72;44.13;94216.63;5046434;28;20100;-61
2022/12/10 01:51:18;;;;;;;6.30;4.35;;;;;;;21.68;44.04;94216.22;5002917;28;20044;-61
2022/12/10 01:53:43;;;;;;;7.05;4.45;;;;;;;21.69;44.17;94218.41;5041368;28;20464;-61
2022/12/10 01:56:12;;;;;;;6.63;4.25;;;;;;;21.78;43.93;94233.59;5016037;28;20056;-62
2022/12/10 01:58:37;;;;;;;6.72;4.20;;;;;;;21.76;44.10;94217.06;5046597;28;20149;-62
2022/12/10 02:01:36;;;;;;;6.43;4.68;;;;;;;21.77;43.96;94224.69;5012705;28;20520;-62
2022/12/10 02:04:11;;;;;;;8.23;4.90;;;;;;;21.04;44.03;94127.72;5019040;28;20041;-63
2022/12/10 02:06:48;;;;;;;6.30;4.38;;;;;;;21.06;43.95;94113.66;5045771;28;20110;-62
2022/12/10 02:09:33;;;;;;;7.72;4.32;;;;;;;21.76;44.09;94223.22;5027893;28;20045;-62
2022/12/10 02:12:17;;;;;;;5.85;3.88;;;;;;;21.76;43.80;94255.09;5027417;28;20081;-62
2022/12/10 02:14:51;;;;;;;6.28;4.15;;;;;;;21.78;44.10;94245.19;5024549;28;20049;-62
2022/12/10 02:17:24;;;;;;;6.82;3.90;;;;;;;21.77;44.05;94245.72;5013075;28;20037;-67
2022/12/10 02:20:22;;;;;;;5.70;4.20;;;;;;;21.76;44.07;94233.38;5008999;28;20053;-61
2022/12/10 02:23:01;;;;;;;6.25;4.20;;;;;;;21.74;44.05;94208.72;4981768;28;20049;-61
2022/12/10 02:25:57;;;;;;;6.40;4.03;;;;;;;21.06;44.11;94103.53;5010055;28;20037;-61
2022/12/10 02:28:31;;;;;;;6.55;4.18;;;;;;;21.59;43.93;94181.28;5025903;28;20050;-63
2022/12/10 02:30:56;;;;;;;6.20;3.97;;;;;;;21.37;44.07;94154.41;5025346;28;20045;-62
2022/12/10 02:33:22;;;;;;;6.50;4.35;;;;;;;20.99;43.90;94103.41;5005289;28;20046;-61
2022/12/10 02:35:48;;;;;;;5.90;4.20;;;;;;;21.63;43.92;94187.88;5024215;28;20378;-62
2022/12/10 02:38:17;;;;;;;6.47;4.30;;;;;;;21.67;43.84;94193.00;5024992;28;20033;-63
2022/12/10 02:40:45;;;;;;;6.55;3.95;;;;;;;21.74;44.05;94208.72;5012586;28;20477;-63
2022/12/10 02:43:12;;;;;;;5.00;3.97;;;;;;;21.74;44.07;94192.41;5024270;28;20486;-61
2022/12/10 02:45:37;;;;;;;5.70;4.03;;;;;;;21.67;44.06;94182.13;5024062;28;20045;-61
2022/12/10 02:48:03;;;;;;;5.50;4.10;;;;;;;21.67;44.30;94193.00;5019514;28;20139;-61
2022/12/10 02:50:28;;;;;;;6.88;4.22;;;;;;;21.73;44.01;94190.94;5002384;28;20045;-61
2022/12/10 02:52:54;;;;;;;7.22;4.40;;;;;;;21.09;44.00;94156.81;5018351;28;20037;-62
2022/12/10 02:55:20;;;;;;;5.47;4.10;;;;;;;20.90;44.10;94092.19;5025745;28;20498;-61
2022/12/10 02:57:52;;;;;;;5.45;3.85;;;;;;;21.65;44.21;94203.66;5025037;28;20045;-61
2022/12/10 03:00:19;;;;;;;5.53;3.90;;;;;;;21.73;44.13;94201.81;5039727;28;20052;-61
2022/12/10 03:02:53;;;;;;;5.75;3.90;;;;;;;21.64;44.18;94204.91;5025516;28;20042;-61
2022/12/10 03:05:22;;;;;;;6.28;4.10;;;;;;;21.74;43.87;94214.16;5025373;28;20045;-62
2022/12/10 03:07:49;;;;;;;5.60;3.75;;;;;;;21.73;44.08;94202.53;5025158;28;20029;-61
2022/12/10 03:10:41;;;;;;;4.80;3.92;;;;;;;21.48;44.09;94219.47;5023941;28;20038;-62
2022/12/10 03:13:08;;;;;;;6.15;4.18;;;;;;;21.61;44.21;94179.50;5023790;28;20045;-61
2022/12/10 03:15:35;;;;;;;6.35;4.22;;;;;;;21.61;44.27;94184.19;5004134;28;20168;-61
2022/12/10 03:18:04;;;;;;;5.40;3.90;;;;;;;21.68;44.16;94189.03;5005218;28;20103;-61
2022/12/10 03:20:31;;;;;;;5.50;4.13;;;;;;;21.59;44.13;94175.84;5001419;28;20144;-63
2022/12/10 03:22:56;;;;;;;5.25;3.80;;;;;;;21.27;44.14;94128.91;5003867;28;20798;-62
2022/12/10 03:25:23;;;;;;;6.63;4.32;;;;;;;21.68;44.27;94189.03;4987202;28;20025;-61
2022/12/10 03:27:52;;;;;;;5.15;3.75;;;;;;;21.39;44.25;94146.50;5003222;28;20081;-61
2022/12/10 03:30:17;;;;;;;7.50;4.20;;;;;;;21.70;44.22;94186.53;4987443;28;20046;-61
2022/12/10 03:32:43;;;;;;;5.85;4.07;;;;;;;21.64;44.16;94183.16;4987526;28;20048;-63
2022/12/10 03:35:08;;;;;;;5.53;3.97;;;;;;;21.46;44.30;94156.78;4968024;28;20092;-63
2022/12/10 03:37:34;;;;;;;5.57;3.83;;;;;;;21.50;44.16;94162.66;4987568;28;20041;-61
2022/12/10 03:40:00;;;;;;;6.00;3.72;;;;;;;21.08;44.08;94117.31;4997278;28;20069;-61
2022/12/10 03:42:25;;;;;;;5.80;3.67;;;;;;;21.71;44.07;94193.44;5016084;28;20097;-61
2022/12/10 03:44:51;;;;;;;5.80;3.67;;;;;;;21.69;44.23;94185.09;4981044;28;20054;-61
2022/12/10 03:47:17;;;;;;;5.03;3.67;;;;;;;21.56;44.23;94166.72;4996024;28;20429;-62
2022/12/10 03:49:42;;;;;;;5.32;3.72;;;;;;;21.67;44.12;94168.53;4985306;28;20022;-61
2022/12/10 03:52:08;;;;;;;6.30;3.63;;;;;;;20.98;44.27;94059.25;5003024;28;20030;-61
2022/12/10 03:54:33;;;;;;;5.25;3.80;;;;;;;21.48;44.20;94148.84;5003061;28;20115;-62
2022/12/10 03:56:59;;;;;;;5.38;3.90;;;;;;;21.59;44.19;94132.38;5004550;28;20481;-61
2022/12/10 03:59:24;;;;;;;4.70;3.75;;;;;;;21.65;44.14;94146.59;4995426;28;20426;-61
2022/12/10 04:01:50;;;;;;;5.60;4.22;;;;;;;21.61;44.22;94146.16;5002326;28;20125;-62
2022/12/10 04:04:15;;;;;;;6.28;3.85;;;;;;;21.10;44.02;94076.81;5006106;28;20030;-62
2022/12/10 04:06:41;;;;;;;4.85;3.63;;;;;;;21.60;44.27;94169.16;5006482;28;20050;-61
2022/12/10 04:09:07;;;;;;;4.65;3.75;;;;;;;21.65;44.30;94174.50;5012875;28;20470;-62
2022/12/10 04:11:32;;;;;;;5.65;3.78;;;;;;;21.52;44.24;94138.41;5009357;28;20423;-62
2022/12/10 04:16:42;;;;;;;4.85;3.38;;;;;;;21.01;44.25;94073.75;5047039;28;20123;-64
2022/12/10 04:19:12;;;;;;;4.47;3.35;;;;;;;21.64;44.21;94167.63;5046285;28;20478;-61
2022/12/10 04:27:09;;;;;;;5.35;3.72;;;;;;;21.55;44.39;94153.66;5044081;28;20056;-62
2022/12/10 04:29:35;;;;;;;4.95;3.38;;;;;;;21.45;44.20;94149.88;5006354;28;20230;-61
2022/12/10 04:32:00;;;;;;;5.50;3.55;;;;;;;21.49;44.52;94155.75;5025417;28;20433;-61
2022/12/10 04:34:26;;;;;;;4.70;3.30;;;;;;;21.56;44.18;94160.56;5044135;28;20115;-62
2022/12/10 04:36:51;;;;;;;4.45;3.30;;;;;;;21.62;44.15;94185.69;5026123;28;20045;-63
2022/12/10 04:39:17;;;;;;;4.60;3.47;;;;;;;21.60;44.27;94180.03;5008826;28;20044;-62
2022/12/10 04:41:44;;;;;;;5.63;3.28;;;;;;;21.67;44.28;94193.00;5046997;28;20086;-61
2022/12/10 04:44:09;;;;;;;5.65;3.35;;;;;;;21.60;44.00;94182.75;5047990;28;20041;-61
2022/12/10 04:46:35;;;;;;;4.88;3.65;;;;;;;21.68;44.49;94197.19;5030703;28;20412;-64
2022/12/10 04:49:00;;;;;;;5.43;3.58;;;;;;;21.60;44.24;94161.03;5047904;28;20487;-62
2022/12/10 04:51:26;;;;;;;6.32;3.70;;;;;;;20.92;44.04;94086.97;5047214;28;20501;-63
2022/12/10 04:53:51;;;;;;;5.53;3.47;;;;;;;21.61;44.11;94187.66;5047898;28;20533;-63
2022/12/10 04:56:17;;;;;;;4.10;3.45;;;;;;;21.68;44.14;94195.19;5047191;28;20122;-62
2022/12/10 04:58:42;;;;;;;5.22;3.70;;;;;;;21.66;44.17;94203.13;5046945;28;20036;-62
2022/12/10 05:01:09;;;;;;;5.03;3.45;;;;;;;19.80;44.03;93894.25;5030103;28;20528;-60
2022/12/10 05:03:34;;;;;;;4.60;3.38;;;;;;;21.67;44.21;94171.25;5047244;28;20063;-61
2022/12/10 05:06:10;;;;;;;5.03;3.70;;;;;;;21.65;44.20;94195.50;5046467;28;20049;-61
2022/12/10 05:08:36;;;;;;;4.20;3.30;;;;;;;21.58;44.44;94191.41;5046362;28;20041;-61
2022/12/10 05:11:07;;;;;;;4.60;3.00;;;;;;;21.66;44.17;94181.41;5032607;28;20091;-61
2022/12/10 05:13:32;;;;;;;5.22;3.40;;;;;;;21.56;44.27;94166.00;5029165;28;20560;-62
2022/12/10 05:15:58;;;;;;;4.57;3.65;;;;;;;21.53;44.46;94167.78;5046875;28;20060;-63
2022/12/10 05:18:23;;;;;;;4.70;3.05;;;;;;;21.62;44.25;94174.81;5012684;28;20508;-63
2022/12/10 05:20:49;;;;;;;5.28;3.15;;;;;;;21.46;44.00;94127.66;5029320;28;20079;-62
2022/12/10 05:23:29;;;;;;;3.65;3.00;;;;;;;21.63;44.19;94166.13;5047388;28;20417;-62
2022/12/10 05:25:58;;;;;;;5.72;3.30;;;;;;;21.65;44.39;94157.47;5031196;28;20098;-61
2022/12/10 05:28:24;;;;;;;3.90;2.85;;;;;;;21.65;44.34;94165.63;5028872;28;20096;-60
2022/12/10 05:30:49;;;;;;;5.43;3.38;;;;;;;21.65;44.20;94162.91;5047611;28;20201;-62
2022/12/10 05:33:15;;;;;;;4.10;3.17;;;;;;;21.66;44.54;94170.53;5046911;28;20045;-63
2022/12/10 05:35:40;;;;;;;4.68;3.22;;;;;;;21.44;44.20;94153.81;5029084;28;20049;-61
2022/12/10 05:38:06;;;;;;;4.45;3.60;;;;;;;20.86;44.12;94097.19;5046846;28;20052;-61
2022/12/10 05:40:35;;;;;;;4.50;3.10;;;;;;;21.66;44.47;94196.97;5030211;28;20029;-61
2022/12/10 05:43:01;;;;;;;4.37;3.53;;;;;;;21.61;44.31;94178.75;5046552;28;20148;-62
2022/12/10 05:45:26;;;;;;;4.63;3.40;;;;;;;21.60;44.38;94177.31;5044986;28;20842;-61
2022/12/10 05:47:52;;;;;;;4.03;3.00;;;;;;;21.66;44.16;94183.41;5036321;28;20501;-60
2022/12/10 05:50:17;;;;;;;4.38;3.05;;;;;;;21.74;43.92;94192.41;5045220;28;20033;-63
2022/12/10 05:52:43;;;;;;;3.58;3.03;;;;;;;21.83;44.25;94195.47;5044621;28;20957;-61
2022/12/10 05:55:08;;;;;;;4.70;3.00;;;;;;;21.94;43.86;94190.59;5030140;28;20562;-62
2022/12/10 05:57:36;;;;;;;5.43;3.53;;;;;;;21.95;43.53;94181.16;5032962;28;20041;-61
2022/12/10 06:00:01;;;;;;;4.57;2.90;;;;;;;20.70;43.08;94011.31;5028700;28;20654;-61
2022/12/10 06:02:27;;;;;;;4.75;3.25;;;;;;;22.28;42.95;94191.50;5010956;28;20122;-62
2022/12/10 06:04:52;;;;;;;4.10;2.97;;;;;;;21.81;42.85;94121.13;5045902;28;20041;-62
2022/12/10 06:07:18;;;;;;;3.95;2.95;;;;;;;22.11;42.78;94149.53;5046862;28;20021;-61
2022/12/10 06:09:44;;;;;;;4.20;3.00;;;;;;;22.63;42.19;94199.25;5028417;28;20067;-61
2022/12/10 06:12:09;;;;;;;3.60;2.70;;;;;;;22.74;42.08;94204.50;5042579;28;20040;-63
2022/12/10 06:14:35;;;;;;;5.38;3.00;;;;;;;22.64;42.11;94189.84;5046227;28;20513;-62
2022/12/10 06:17:00;;;;;;;4.25;2.78;;;;;;;22.14;42.23;94100.25;5046024;28;20509;-62
2022/12/10 06:19:25;;;;;;;4.10;2.95;;;;;;;22.56;42.10;94150.91;5028385;28;20029;-62
2022/12/10 06:21:51;;;;;;;3.63;3.08;;;;;;;22.80;42.29;94191.53;5045558;28;20045;-61
2022/12/10 06:24:16;;;;;;;4.38;2.85;;;;;;;22.88;42.18;94195.78;5045506;28;20087;-61
2022/12/10 06:26:42;;;;;;;4.25;2.88;;;;;;;23.03;41.70;94194.03;5044375;28;20148;-61
2022/12/10 06:29:08;;;;;;;4.80;2.85;;;;;;;22.94;41.47;94177.38;4995194;28;20052;-61
2022/12/10 06:31:34;;;;;;;3.53;2.63;;;;;;;23.27;41.19;94191.03;5046081;28;20025;-63
2022/12/10 06:33:59;;;;;;;4.13;3.15;;;;;;;23.30;41.14;94162.72;5044636;28;20049;-64
2022/12/10 06:36:25;;;;;;;3.67;2.60;;;;;;;23.09;41.38;94121.13;5044190;28;20395;-62
2022/12/10 06:38:50;;;;;;;3.60;2.60;;;;;;;22.65;41.38;94017.16;5043696;28;20049;-62
2022/12/10 06:41:17;;;;;;;4.10;2.70;;;;;;;23.45;41.11;94171.06;5025632;28;20366;-63
2022/12/10 06:43:42;;;;;;;3.88;2.70;;;;;;;23.39;40.66;94182.09;5026269;28;20443;-62
2022/12/10 06:46:12;;;;;;;3.70;2.65;;;;;;;23.34;40.69;94154.25;5043877;28;20063;-62
2022/12/10 06:48:37;;;;;;;3.60;2.60;;;;;;;23.64;40.68;94169.66;5024348;28;20068;-62
2022/12/10 06:51:04;;;;;;;4.22;2.75;;;;;;;23.44;40.87;94156.72;5024877;28;20048;-62
2022/12/10 06:53:30;;;;;;;4.05;2.67;;;;;;;23.73;40.67;94193.00;5041775;28;20048;-62
2022/12/10 06:55:58;;;;;;;3.30;2.53;;;;;;;23.81;40.04;94223.78;5044825;28;20109;-61
2022/12/10 06:58:23;;;;;;;3.50;2.83;;;;;;;23.85;40.10;94205.13;5045165;28;20306;-62
2022/12/10 07:00:49;;;;;;;4.40;2.70;;;;;;;23.97;39.35;94180.50;5029160;28;20737;-62
2022/12/10 07:03:14;;;;;;;3.75;2.60;;;;;;;23.98;39.67;94186.69;5030758;28;20049;-63
2022/12/10 07:05:40;;;;;;;4.13;2.65;;;;;;;24.12;40.22;94196.97;5045093;28;20052;-61
2022/12/10 07:08:05;;;;;;;5.05;2.70;;;;;;;23.27;40.55;94131.09;5044755;28;20502;-61
2022/12/10 07:10:31;;;;;;;3.50;2.30;;;;;;;23.93;40.27;94215.56;5045111;28;20555;-61
2022/12/10 07:12:56;;;;;;;4.07;2.60;;;;;;;24.12;40.41;94207.16;5043381;28;20041;-62
2022/12/10 07:15:23;;;;;;;5.47;2.83;;;;;;;23.32;40.08;94067.59;5043429;28;20049;-63
2022/12/10 07:17:50;;;;;;;2.97;2.67;;;;;;;24.02;40.54;94181.63;5045135;28;20094;-61
2022/12/10 07:20:16;;;;;;;3.47;2.67;;;;;;;23.94;40.73;94192.47;5016752;28;20052;-62
2022/12/10 07:22:41;;;;;;;2.78;2.28;;;;;;;24.03;40.38;94183.09;5046790;28;20033;-62
2022/12/10 07:25:07;;;;;;;3.08;2.35;;;;;;;23.48;40.72;94101.88;5047503;28;20086;-62
2022/12/10 07:27:33;;;;;;;4.60;2.60;;;;;;;23.87;40.42;94160.41;5045068;28;20041;-61
2022/12/10 07:29:58;;;;;;;3.83;2.45;;;;;;;24.25;39.95;94166.91;5045147;28;20180;-67
2022/12/10 07:32:24;;;;;;;3.65;2.72;;;;;;;24.25;39.90;94171.63;5027251;28;20057;-64
2022/12/10 07:34:49;;;;;;;3.50;2.47;;;;;;;24.21;39.75;94161.03;5044257;28;20041;-62
2022/12/10 07:37:15;;;;;;;3.22;2.35;;;;;;;24.20;39.99;94175.22;5044958;28;20098;-61
2022/12/10 07:39:42;;;;;;;3.58;2.63;;;;;;;24.29;40.04;94144.72;5044242;28;20123;-61
2022/12/10 07:42:08;;;;;;;3.30;2.30;;;;;;;24.40;39.42;94156.84;5043670;28;20039;-62
2022/12/10 07:44:33;;;;;;;4.30;2.38;;;;;;;24.38;39.83;94142.28;5041661;28;20048;-62
2022/12/10 07:46:59;;;;;;;3.15;2.30;;;;;;;24.45;40.13;94190.72;5043296;28;20064;-62
2022/12/10 07:49:24;;;;;;;3.80;2.50;;;;;;;24.54;39.70;94184.75;5026583;28;20471;-63
2022/12/10 07:51:50;;;;;;;3.28;2.22;;;;;;;24.55;39.43;94169.84;5041173;28;20049;-62
2022/12/10 07:54:15;;;;;;;3.33;2.20;;;;;;;24.60;40.07;94174.44;5025522;28;20128;-60
2022/12/10 07:56:41;;;;;;;3.47;2.47;;;;;;;24.00;39.55;94086.69;5042459;28;20041;-62
2022/12/10 07:59:06;;;;;;;3.70;2.35;;;;;;;24.61;39.44;94162.25;5042321;28;20048;-62
2022/12/10 08:01:32;;;;;;;2.90;2.20;;;;;;;24.33;39.70;94134.22;5043608;28;20036;-61
2022/12/10 08:03:57;;;;;;;2.90;2.38;;;;;;;24.44;39.47;94146.31;5041638;28;20037;-61
2022/12/10 08:06:23;;;;;;;3.60;2.30;;;;;;;24.60;39.62;94156.06;5024953;28;20071;-62
2022/12/10 08:08:49;;;;;;;2.58;2.08;;;;;;;24.43;39.66;94125.03;4991994;28;20069;-63
2022/12/10 08:11:15;;;;;;;5.05;2.65;;;;;;;24.23;39.22;94076.69;5042409;28;20049;-61
2022/12/10 08:13:41;;;;;;;3.35;2.33;;;;;;;24.82;39.41;94137.03;5025210;28;20036;-63
2022/12/10 08:16:11;;;;;;;3.67;2.58;;;;;;;24.89;39.31;94136.34;5031381;28;20450;-62
2022/12/10 08:18:37;;;;;;;3.90;2.30;;;;;;;25.27;38.70;94164.56;5030946;28;20041;-62
2022/12/10 08:21:06;;;;;;;3.00;2.15;;;;;;;24.98;38.81;94121.47;5039707;28;20094;-61
2022/12/10 08:23:31;;;;;;;3.60;2.22;;;;;;;24.96;38.83;94141.13;5041427;28;20120;-63
2022/12/10 08:25:57;;;;;;;5.07;2.25;;;;;;;24.20;39.56;94039.56;5024971;28;20041;-61
2022/12/10 08:28:22;;;;;;;3.95;2.30;;;;;;;24.32;39.23;94068.00;5043377;28;20037;-62
2022/12/10 08:30:48;;;;;;;6.63;2.95;;;;;;;24.03;39.45;94009.25;5024714;28;20110;-61
2022/12/10 08:33:13;;;;;;;3.95;2.55;;;;;;;24.46;38.94;94040.06;5009182;28;20048;-64
2022/12/10 08:35:39;;;;;;;3.42;2.30;;;;;;;24.70;39.32;94107.88;5039398;28;20159;-63
2022/12/10 08:38:04;;;;;;;3.45;2.10;;;;;;;24.92;39.14;94124.34;5025444;28;20033;-63
2022/12/10 08:40:30;;;;;;;3.25;2.17;;;;;;;25.14;38.86;94129.22;5025459;28;20040;-63
2022/12/10 08:42:55;;;;;;;3.22;2.30;;;;;;;25.13;38.77;94121.56;5024559;28;20036;-62
2022/12/10 08:45:21;;;;;;;3.08;2.50;;;;;;;24.95;39.10;94106.16;5025990;28;20045;-60
2022/12/10 08:47:46;;;;;;;2.83;2.17;;;;;;;25.03;38.81;94113.13;5042932;28;20033;-61
2022/12/10 08:50:12;;;;;;;4.22;2.10;;;;;;;25.06;38.53;94128.44;5043929;28;20107;-62
2022/12/10 08:52:37;;;;;;;3.65;2.25;;;;;;;25.03;38.48;94104.22;5041601;28;20033;-63
2022/12/10 08:55:03;;;;;;;6.20;2.80;;;;;;;24.85;38.96;94114.13;5044105;28;20045;-61
2022/12/10 08:57:28;;;;;;;4.68;2.90;;;;;;;24.88;39.15;94085.72;5024634;28;20068;-62
2022/12/10 08:59:54;;;;;;;3.00;2.20;;;;;;;24.89;39.38;94113.78;5025735;28;20041;-63
2022/12/10 09:02:19;;;;;;;3.70;2.45;;;;;;;25.06;38.62;94122.97;5030167;28;20037;-62
2022/12/10 09:04:46;;;;;;;4.97;2.25;;;;;;;24.85;39.11;94114.13;5042569;28;20442;-60
2022/12/10 09:07:12;;;;;;;5.53;3.83;;;;;;;24.80;39.12;94105.34;5043627;28;20261;-62
2022/12/10 09:09:37;;;;;;;3.60;2.30;;;;;;;25.01;39.09;94099.28;5025462;28;20053;-62
2022/12/10 09:12:03;;;;;;;3.25;2.35;;;;;;;24.86;39.25;94104.66;5042709;28;20559;-61
2022/12/10 09:14:28;;;;;;;4.40;2.30;;;;;;;24.33;39.33;93998.53;5043091;28;20049;-64
2022/12/10 09:16:54;;;;;;;4.53;2.20;;;;;;;24.75;39.16;94044.16;5032316;28;20416;-62
2022/12/10 09:19:19;;;;;;;3.35;2.40;;;;;;;24.96;39.27;94081.03;5044583;28;20056;-61
2022/12/10 09:21:45;;;;;;;4.15;2.65;;;;;;;24.90;39.22;94088.66;5040851;28;20052;-63
2022/12/10 09:24:10;;;;;;;4.57;2.40;;;;;;;24.46;40.75;94006.59;5042724;28;20063;-62
2022/12/10 09:26:36;;;;;;;3.60;2.38;;;;;;;24.94;39.76;94089.03;5043329;28;20188;-62
2022/12/10 09:29:01;;;;;;;4.75;2.47;;;;;;;24.84;39.67;94073.69;5046617;28;20049;-68
2022/12/10 09:31:27;;;;;;;3.30;2.25;;;;;;;24.96;38.87;94070.13;5030237;28;20021;-66
2022/12/10 09:33:53;;;;;;;5.88;3.83;;;;;;;24.85;39.57;94081.34;5025423;28;20097;-63
2022/12/10 09:36:18;;;;;;;4.97;2.50;;;;;;;24.78;39.45;94053.28;5046399;28;20169;-63
2022/12/10 09:38:44;;;;;;;3.58;2.30;;;;;;;25.41;37.84;93988.22;5027574;28;20045;-64
2022/12/10 09:41:37;;;;;;;4.22;2.60;;;;;;;24.82;38.29;93967.72;5047572;28;20029;-61
2022/12/10 09:44:14;;;;;;;4.63;3.17;;;;;;;25.52;38.30;94062.41;5046883;28;20071;-62
2022/12/10 09:46:58;;;;;;;3.47;2.38;;;;;;;24.90;38.73;93973.22;5047256;28;20042;-63
2022/12/10 09:49:49;;;;;;;4.25;2.60;;;;;;;25.43;38.67;94062.22;5029654;28;20043;-60
2022/12/10 09:52:19;;;;;;;3.45;2.60;;;;;;;25.11;37.97;93952.69;5029060;28;20052;-62
2022/12/10 09:54:46;;;;;;;3.65;2.47;;;;;;;25.36;39.00;94052.00;5030242;28;20052;-63
2022/12/10 09:57:20;;;;;;;3.28;2.42;;;;;;;25.31;38.90;94028.31;5040602;28;20045;-63
2022/12/10 09:59:47;;;;;;;3.50;2.30;;;;;;;25.58;38.93;94051.28;5029308;28;20049;-62
2022/12/10 10:02:25;;;;;;;4.53;2.33;;;;;;;26.27;37.93;94033.00;5045065;28;20571;-63
2022/12/10 10:04:52;;;;;;;2.90;2.50;;;;;;;26.39;37.25;94039.56;5041221;28;20041;-62
2022/12/10 10:07:24;;;;;;;4.40;2.28;;;;;;;26.28;37.73;94037.94;5045974;28;20020;-61
2022/12/10 10:09:51;;;;;;;3.75;2.40;;;;;;;26.08;37.79;94031.94;5011253;28;20056;-62
2022/12/10 10:12:16;;;;;;;5.43;2.53;;;;;;;25.75;38.27;94013.19;5011453;28;20068;-61
2022/12/10 10:14:45;;;;;;;4.30;2.45;;;;;;;25.81;38.43;94037.09;5025114;28;20057;-61
2022/12/10 10:17:22;;;;;;;3.35;2.47;;;;;;;25.92;38.06;94036.00;5005323;28;20204;-61
2022/12/10 10:19:49;;;;;;;4.28;2.40;;;;;;;25.90;38.45;94031.06;5020388;28;20041;-61
2022/12/10 10:22:15;;;;;;;3.83;2.72;;;;;;;25.77;38.89;94029.78;5025350;28;20380;-62
2022/12/10 10:24:42;;;;;;;3.70;2.50;;;;;;;25.63;38.67;94014.81;5024761;28;20049;-62
2022/12/10 10:27:15;;;;;;;4.78;2.90;;;;;;;25.70;38.74;94014.13;5023699;28;20143;-61
2022/12/10 10:29:44;;;;;;;4.63;2.65;;;;;;;25.49;39.08;94005.34;5024045;28;20571;-62
2022/12/10 10:32:18;;;;;;;5.00;2.93;;;;;;;25.81;38.50;94004.28;5007274;28;20053;-63
2022/12/10 10:34:44;;;;;;;3.90;2.58;;;;;;;23.80;38.69;93739.78;5024461;28;20025;-62
2022/12/10 10:37:26;;;;;;;4.97;2.70;;;;;;;25.43;38.84;93974.75;5025592;28;20117;-61
2022/12/10 10:39:52;;;;;;;12.02;6.70;;;;;;;23.88;40.69;93989.34;5011429;28;20041;-62
2022/12/10 10:42:32;;;;;;;8.93;5.45;;;;;;;23.73;41.28;93974.91;5024264;28;20045;-61
2022/12/10 10:44:58;;;;;;;8.40;5.10;;;;;;;23.23;40.94;93866.50;5024220;28;20099;-63
2022/12/10 10:47:31;;;;;;;8.25;5.50;;;;;;;23.94;40.87;93968.84;5024148;28;20049;-61
2022/12/10 10:49:56;;;;;;;11.35;5.75;;;;;;;22.98;41.53;93876.31;5008418;28;20038;-61
2022/12/10 10:52:22;;;;;;;9.13;6.50;;;;;;;23.66;41.16;93981.03;5031800;28;20032;-60
2022/12/10 10:54:48;;;;;;;11.88;5.90;;;;;;;23.51;41.71;93981.66;5030592;28;20042;-59
2022/12/10 10:57:23;;;;;;;10.38;6.97;;;;;;;23.35;42.26;93973.91;5029792;28;20695;-60
2022/12/10 10:59:48;;;;;;;9.73;6.18;;;;;;;23.27;42.60;93958.75;5028572;28;20103;-60
2022/12/10 11:02:32;;;;;;;10.63;6.20;;;;;;;23.26;42.83;93958.03;5023760;28;20065;-60
2022/12/10 11:04:59;;;;;;;11.02;7.13;;;;;;;23.68;42.73;93957.44;5006240;28;20045;-60
2022/12/10 11:07:39;;;;;;;11.25;6.97;;;;;;;23.28;41.92;93876.50;5023586;28;20601;-61
2022/12/10 11:10:19;;;;;;;14.68;7.85;;;;;;;24.03;41.05;93954.72;4995618;28;20068;-62
2022/12/10 11:12:52;;;;;;;21.10;9.40;;;;;;;23.20;43.09;93935.66;5023274;28;20112;-62
2022/12/10 11:15:24;;;;;;;14.18;7.68;;;;;;;22.44;42.64;93832.13;5022908;28;20045;-62
2022/12/10 11:17:51;;;;;;;17.85;9.00;;;;;;;23.19;42.53;93928.75;5024598;28;20160;-61
2022/12/10 11:20:22;;;;;;;15.73;8.77;;;;;;;22.75;43.13;93901.88;5022520;28;20041;-61
2022/12/10 11:22:51;;;;;;;12.95;7.38;;;;;;;23.23;42.61;93934.59;5023706;28;20029;-60
2022/12/10 11:25:18;;;;;;;14.20;7.97;;;;;;;23.80;42.03;93903.34;5023767;28;20106;-59
2022/12/10 11:27:57;;;;;;;17.23;9.20;;;;;;;23.67;42.02;93903.47;5022742;28;20041;-61
2022/12/10 11:30:23;;;;;;;12.20;7.23;;;;;;;23.42;42.22;93869.69;5025037;28;20080;-60
2022/12/10 11:33:07;;;;;;;11.55;6.47;;;;;;;23.51;42.35;93899.16;5022189;28;20818;-61
2022/12/10 11:35:35;;;;;;;10.45;5.55;;;;;;;23.50;42.41;93892.28;5023899;28;20045;-60
2022/12/10 11:38:25;;;;;;;11.77;6.05;;;;;;;22.67;42.59;93805.09;5024269;28;20137;-60
2022/12/10 11:41:22;;;;;;;9.70;6.03;;;;;;;23.31;42.78;93908.13;5024864;28;20032;-61
2022/12/10 11:43:50;;;;;;;8.38;5.57;;;;;;;23.32;42.72;93906.13;5013600;28;20030;-60